createdAt,value
2023-03-16T00:02:08.399Z,2.0
2023-03-16T00:07:18.279Z,2.0
2023-03-16T00:12:24.732Z,2.0
2023-03-16T00:17:55.133Z,2.0
2023-03-16T00:27:43.860Z,2.0
2023-03-16T00:32:50.293Z,1.9
2023-03-16T00:37:56.590Z,1.9
2023-03-16T00:48:09.496Z,1.9
2023-03-16T00:53:15.894Z,1.9
2023-03-16T00:58:56.431Z,2.0
2023-03-16T01:04:27.842Z,1.9
2023-03-16T01:09:10.178Z,2.0
2023-03-16T01:14:36.599Z,2.0
2023-03-16T01:19:43.541Z,2.0
2023-03-16T01:24:29.885Z,2.0
2023-03-16T01:29:36.325Z,2.0
2023-03-16T01:34:43.853Z,2.1
2023-03-16T01:39:50.218Z,2.1
2023-03-16T01:44:56.607Z,2.1
2023-03-16T01:50:04.610Z,2.1
2023-03-16T01:55:10.959Z,2.1
2023-03-16T02:00:41.420Z,2.1
2023-03-16T02:05:23.775Z,2.2
2023-03-16T02:10:30.753Z,2.1
2023-03-16T02:15:36.577Z,2.2
2023-03-16T02:25:49.398Z,2.2
2023-03-16T02:32:07.913Z,2.2
2023-03-16T02:36:16.221Z,2.2
2023-03-16T02:40:58.549Z,2.3
2023-03-16T02:46:15.034Z,2.3
2023-03-16T02:51:11.307Z,2.3
2023-03-16T02:56:31.320Z,2.3
2023-03-16T03:01:37.691Z,2.4
2023-03-16T03:06:44.634Z,2.4
2023-03-16T03:11:51.047Z,2.5
2023-03-16T03:16:57.425Z,2.5
2023-03-16T03:22:03.860Z,2.5
2023-03-16T03:27:10.244Z,2.5
2023-03-16T03:32:16.654Z,2.5
2023-03-16T03:37:22.998Z,2.6
2023-03-16T03:42:29.482Z,2.6
2023-03-16T03:47:35.798Z,2.6
2023-03-16T03:52:42.167Z,2.6
2023-03-16T03:58:12.631Z,2.6
2023-03-16T04:02:55.143Z,2.7
2023-03-16T04:08:01.415Z,2.7
2023-03-16T04:13:07.783Z,2.7
2023-03-16T04:18:15.752Z,2.7
2023-03-16T04:23:41.153Z,2.7
2023-03-16T04:28:28.497Z,2.8
2023-03-16T04:33:26.202Z,2.8
2023-03-16T04:39:06.655Z,2.8
2023-03-16T04:43:49.169Z,2.8
2023-03-16T04:49:36.686Z,2.8
2023-03-16T04:54:34.190Z,2.8
2023-03-16T04:59:40.666Z,2.9
2023-03-16T05:04:57.095Z,2.9
2023-03-16T05:10:03.465Z,2.9
2023-03-16T05:15:29.863Z,2.9
2023-03-16T05:20:16.857Z,2.9
2023-03-16T05:25:23.183Z,3.0
2023-03-16T05:30:53.630Z,3.0
2023-03-16T05:35:35.986Z,3.0
2023-03-16T05:40:32.367Z,3.0
2023-03-16T05:45:48.877Z,3.0
2023-03-16T05:50:59.279Z,3.0
2023-03-16T05:56:01.634Z,3.0
2023-03-16T06:01:08.003Z,3.1
2023-03-16T06:06:14.416Z,3.1
2023-03-16T06:11:20.766Z,3.1
2023-03-16T06:16:27.195Z,3.1
2023-03-16T06:21:33.559Z,3.1
2023-03-16T06:26:39.920Z,3.1
2023-03-16T06:31:46.309Z,3.2
2023-03-16T06:36:52.692Z,3.2
2023-03-16T06:41:59.036Z,3.2
2023-03-16T06:47:05.404Z,3.2
2023-03-16T06:52:11.813Z,3.3
2023-03-16T06:57:19.753Z,3.3
2023-03-16T07:02:27.220Z,3.4
2023-03-16T07:07:33.726Z,3.4
2023-03-16T07:12:44.070Z,3.5
2023-03-16T07:17:50.001Z,3.6
2023-03-16T07:22:56.414Z,3.7
2023-03-16T07:28:04.353Z,3.8
2023-03-16T07:33:10.842Z,4.0
2023-03-16T07:38:44.727Z,4.1
2023-03-16T07:43:27.029Z,4.2
2023-03-16T07:48:33.430Z,4.3
2023-03-16T07:53:39.961Z,4.4
2023-03-16T07:58:47.996Z,4.5
2023-03-16T08:03:54.326Z,4.6
2023-03-16T08:09:02.249Z,4.7
2023-03-16T08:14:08.649Z,4.9
2023-03-16T08:19:14.982Z,5.0
2023-03-16T08:24:21.444Z,5.1
2023-03-16T08:29:29.421Z,5.3
2023-03-16T08:34:35.879Z,5.5
2023-03-16T08:39:46.291Z,5.7
2023-03-16T08:44:38.695Z,6.0
2023-03-16T08:49:44.046Z,6.3
2023-03-16T08:55:03.737Z,6.6
2023-03-16T09:00:07.864Z,6.7
2023-03-16T09:05:18.381Z,6.9
2023-03-16T09:10:24.194Z,7.0
2023-03-16T09:15:30.596Z,7.0
2023-03-16T09:20:37.317Z,7.2
2023-03-16T09:25:47.311Z,7.3
2023-03-16T09:30:51.313Z,7.4
2023-03-16T09:41:04.587Z,7.6
2023-03-16T09:46:12.122Z,7.6
2023-03-16T09:51:18.484Z,7.6
2023-03-16T09:56:48.809Z,7.6
2023-03-16T10:01:55.236Z,7.6
2023-03-16T10:06:27.482Z,7.6
2023-03-16T10:11:43.941Z,7.6
2023-03-16T10:16:50.585Z,7.6
2023-03-16T10:21:56.950Z,7.6
2023-03-16T10:27:03.277Z,7.6
2023-03-16T10:31:59.685Z,7.6
2023-03-16T10:37:16.081Z,7.6
2023-03-16T10:42:22.412Z,7.7
2023-03-16T10:47:28.891Z,7.7
2023-03-16T10:52:35.326Z,7.9
2023-03-16T10:58:30.694Z,8.0
2023-03-16T11:02:51.733Z,8.2
2023-03-16T11:08:18.190Z,8.3
2023-03-16T11:13:03.533Z,8.5
2023-03-16T11:18:14.538Z,8.6
2023-03-16T11:23:23.899Z,8.7
2023-03-16T11:28:28.790Z,8.8
2023-03-16T11:33:35.179Z,8.9
2023-03-16T11:39:15.865Z,9.0
2023-03-16T11:44:23.241Z,9.0
2023-03-16T11:49:29.621Z,9.0
2023-03-16T11:54:36.025Z,9.1
2023-03-16T11:59:48.938Z,9.1
2023-03-16T12:04:48.734Z,9.1
2023-03-16T12:09:55.159Z,9.2
2023-03-16T12:15:21.571Z,9.2
2023-03-16T12:20:07.904Z,9.4
2023-03-16T12:25:14.340Z,9.5
2023-03-16T12:30:20.711Z,9.7
2023-03-16T12:35:27.450Z,10.0
2023-03-16T12:41:09.584Z,10.5
2023-03-16T12:56:29.944Z,11.0
2023-03-16T13:01:36.419Z,11.2
2023-03-16T13:07:06.786Z,11.4
2023-03-16T13:12:09.191Z,11.5
2023-03-16T13:19:52.950Z,11.7
2023-03-16T13:23:04.657Z,11.7
2023-03-16T13:27:47.154Z,11.7
2023-03-16T13:32:57.337Z,11.7
2023-03-16T13:39:31.894Z,11.7
2023-03-16T13:43:10.137Z,11.6
2023-03-16T13:48:12.484Z,11.6
2023-03-16T13:53:18.848Z,11.6
2023-03-16T13:58:29.257Z,11.8
2023-03-16T14:03:31.602Z,12.0
2023-03-16T14:08:37.990Z,12.3
2023-03-16T14:14:08.452Z,12.6
2023-03-16T14:18:50.766Z,12.9
2023-03-16T14:23:58.296Z,13.1
2023-03-16T14:29:04.700Z,13.2
2023-03-16T14:34:31.220Z,13.3
2023-03-16T14:39:21.543Z,13.3
2023-03-16T14:45:36.077Z,13.3
2023-03-16T14:49:54.485Z,13.3
2023-03-16T14:54:37.564Z,13.3
2023-03-16T14:59:43.940Z,13.2
2023-03-16T15:10:54.795Z,13.4
2023-03-16T15:21:07.672Z,13.6
2023-03-16T15:26:18.114Z,13.7
2023-03-16T15:31:40.521Z,13.8
2023-03-16T15:41:57.405Z,13.9
2023-03-16T15:46:29.784Z,13.9
2023-03-16T15:52:10.119Z,13.9
2023-03-16T16:01:58.867Z,13.9
2023-03-16T16:07:29.248Z,13.9
2023-03-16T16:12:25.606Z,13.9
2023-03-16T16:17:18.009Z,13.8
2023-03-16T16:22:24.409Z,13.7
2023-03-16T16:27:30.803Z,13.6
2023-03-16T16:32:37.232Z,13.5
2023-03-16T16:37:43.673Z,13.4
2023-03-16T16:43:14.210Z,13.2
2023-03-16T16:47:56.591Z,13.1
2023-03-16T16:53:02.954Z,13.0
2023-03-16T16:58:18.533Z,12.8
2023-03-16T17:03:15.767Z,12.7
2023-03-16T17:08:22.147Z,12.6
2023-03-16T17:13:28.681Z,12.4
2023-03-16T17:18:42.720Z,12.3
2023-03-16T17:23:45.069Z,12.1
2023-03-16T17:28:51.438Z,11.9
2023-03-16T17:33:58.018Z,11.8
2023-03-16T17:39:04.392Z,11.6
2023-03-16T17:44:10.869Z,11.4
2023-03-16T17:49:07.288Z,11.2
2023-03-16T17:54:43.784Z,11.1
2023-03-16T17:59:30.180Z,10.9
2023-03-16T18:04:36.594Z,10.7
2023-03-16T18:09:32.925Z,10.6
2023-03-16T18:14:49.361Z,10.4
2023-03-16T18:19:55.760Z,10.3
2023-03-16T18:25:30.200Z,10.1
2023-03-16T18:30:08.673Z,10.0
2023-03-16T18:35:15.336Z,9.9
2023-03-16T18:41:05.764Z,9.8
2023-03-16T18:45:28.477Z,9.7
2023-03-16T18:50:39.126Z,9.6
2023-03-16T19:11:02.540Z,9.2
2023-03-16T19:16:09.076Z,9.1
2023-03-16T19:21:15.355Z,9.0
2023-03-16T19:27:05.839Z,8.9
2023-03-16T19:31:28.169Z,8.8
2023-03-16T19:36:34.575Z,8.7
2023-03-16T19:41:41.039Z,8.7
2023-03-16T19:46:47.525Z,8.6
2023-03-16T19:52:18.001Z,8.5
2023-03-16T20:07:13.124Z,8.4
2023-03-16T20:22:32.444Z,8.3
2023-03-16T20:27:39.050Z,8.3
2023-03-16T20:32:45.646Z,8.2
2023-03-16T20:37:52.080Z,8.2
2023-03-16T20:42:58.451Z,8.2
2023-03-16T20:48:05.021Z,8.1
2023-03-16T20:53:11.354Z,8.1
2023-03-16T20:58:17.784Z,8.0
2023-03-16T21:03:24.331Z,8.0
2023-03-16T21:08:30.682Z,8.0
2023-03-16T21:13:57.358Z,8.0
2023-03-16T21:19:07.746Z,7.9
2023-03-16T21:23:50.107Z,7.9
2023-03-16T21:29:20.606Z,7.9
2023-03-16T21:34:02.949Z,7.9
2023-03-16T21:39:09.484Z,7.9
2023-03-16T21:44:16.077Z,7.9
2023-03-16T21:49:22.452Z,7.9
2023-03-16T21:54:28.852Z,7.9
2023-03-16T21:59:38.974Z,7.9
2023-03-16T22:04:45.430Z,7.8
2023-03-16T22:09:51.836Z,7.8
2023-03-16T22:14:58.210Z,7.8
2023-03-16T22:20:04.595Z,7.7
2023-03-16T22:25:25.033Z,7.7
2023-03-16T22:30:17.457Z,7.7
2023-03-16T22:35:23.850Z,7.6
2023-03-16T22:40:50.287Z,7.6
2023-03-16T22:46:20.809Z,7.5
2023-03-16T22:50:42.999Z,7.5
2023-03-16T22:55:49.383Z,7.5
2023-03-16T23:00:45.818Z,7.5
2023-03-16T23:06:02.199Z,7.4
2023-03-16T23:11:08.577Z,7.4
2023-03-16T23:16:05.674Z,7.3
2023-03-16T23:21:22.040Z,7.3
2023-03-16T23:26:28.397Z,7.2
2023-03-16T23:31:24.809Z,7.2
2023-03-16T23:36:41.180Z,7.2
2023-03-16T23:41:47.610Z,7.2
2023-03-16T23:46:54.080Z,7.1
2023-03-16T23:52:00.567Z,7.1
2023-03-16T23:57:07.033Z,7.0
